sensor_id;sensor_type;location;lat;lon;timestamp;P1;durP1;ratioP1;P2;durP2;ratioP2
11054;SDS011;5580;50.106;8.702;2023-02-01T00:01:55;7.43;;;5.10;;
11054;SDS011;5580;50.106;8.702;2023-02-01T00:04:21;7.93;;;5.13;;
11054;SDS011;5580;50.106;8.702;2023-02-01T00:06:47;8.07;;;5.30;;
11054;SDS011;5580;50.106;8.702;2023-02-01T00:09:13;8.37;;;4.87;;
11054;SDS011;5580;50.106;8.702;2023-02-01T00:11:38;7.87;;;5.40;;
11054;SDS011;5580;50.106;8.702;2023-02-01T00:14:04;9.10;;;5.43;;
11054;SDS011;5580;50.106;8.702;2023-02-01T00:16:31;9.73;;;5.53;;
11054;SDS011;5580;50.106;8.702;2023-02-01T00:18:58;6.60;;;5.03;;
11054;SDS011;5580;50.106;8.702;2023-02-01T00:21:29;9.07;;;5.00;;
11054;SDS011;5580;50.106;8.702;2023-02-01T00:23:55;8.87;;;5.40;;
11054;SDS011;5580;50.106;8.702;2023-02-01T00:26:22;7.73;;;5.47;;
11054;SDS011;5580;50.106;8.702;2023-02-01T00:28:55;10.07;;;5.73;;
11054;SDS011;5580;50.106;8.702;2023-02-01T00:31:20;7.83;;;5.50;;
11054;SDS011;5580;50.106;8.702;2023-02-01T00:33:47;9.87;;;5.40;;
11054;SDS011;5580;50.106;8.702;2023-02-01T00:36:13;8.07;;;5.30;;
11054;SDS011;5580;50.106;8.702;2023-02-01T00:38:39;8.10;;;5.50;;
11054;SDS011;5580;50.106;8.702;2023-02-01T00:41:06;8.50;;;5.23;;
11054;SDS011;5580;50.106;8.702;2023-02-01T00:43:34;9.27;;;5.50;;
11054;SDS011;5580;50.106;8.702;2023-02-01T00:46:00;8.60;;;5.30;;
11054;SDS011;5580;50.106;8.702;2023-02-01T00:48:26;9.20;;;5.70;;
11054;SDS011;5580;50.106;8.702;2023-02-01T00:50:52;9.33;;;5.53;;
11054;SDS011;5580;50.106;8.702;2023-02-01T00:53:17;9.00;;;5.60;;
11054;SDS011;5580;50.106;8.702;2023-02-01T00:55:47;7.73;;;5.30;;
11054;SDS011;5580;50.106;8.702;2023-02-01T00:58:13;9.37;;;5.63;;
11054;SDS011;5580;50.106;8.702;2023-02-01T01:00:39;10.70;;;5.83;;
11054;SDS011;5580;50.106;8.702;2023-02-01T01:03:05;9.97;;;5.77;;
11054;SDS011;5580;50.106;8.702;2023-02-01T01:05:49;9.77;;;6.00;;
11054;SDS011;5580;50.106;8.702;2023-02-01T01:08:15;10.27;;;6.30;;
11054;SDS011;5580;50.106;8.702;2023-02-01T01:10:41;10.40;;;6.33;;
11054;SDS011;5580;50.106;8.702;2023-02-01T01:13:07;11.57;;;6.20;;
11054;SDS011;5580;50.106;8.702;2023-02-01T01:15:37;9.03;;;6.17;;
11054;SDS011;5580;50.106;8.702;2023-02-01T01:18:04;9.23;;;6.03;;
11054;SDS011;5580;50.106;8.702;2023-02-01T01:20:31;10.37;;;6.47;;
11054;SDS011;5580;50.106;8.702;2023-02-01T01:22:59;10.33;;;6.60;;
11054;SDS011;5580;50.106;8.702;2023-02-01T01:25:25;13.87;;;6.70;;
11054;SDS011;5580;50.106;8.702;2023-02-01T01:27:50;11.37;;;6.23;;
11054;SDS011;5580;50.106;8.702;2023-02-01T01:30:16;10.53;;;6.07;;
11054;SDS011;5580;50.106;8.702;2023-02-01T01:32:42;11.30;;;6.97;;
11054;SDS011;5580;50.106;8.702;2023-02-01T01:35:08;10.17;;;6.33;;
11054;SDS011;5580;50.106;8.702;2023-02-01T01:37:34;10.70;;;6.67;;
11054;SDS011;5580;50.106;8.702;2023-02-01T01:40:01;11.80;;;7.30;;
11054;SDS011;5580;50.106;8.702;2023-02-01T01:42:27;11.20;;;6.83;;
11054;SDS011;5580;50.106;8.702;2023-02-01T01:44:56;12.43;;;7.10;;
11054;SDS011;5580;50.106;8.702;2023-02-01T01:47:30;11.57;;;6.97;;
11054;SDS011;5580;50.106;8.702;2023-02-01T01:50:00;12.67;;;7.10;;
11054;SDS011;5580;50.106;8.702;2023-02-01T01:52:27;13.53;;;7.43;;
11054;SDS011;5580;50.106;8.702;2023-02-01T01:54:53;10.87;;;7.27;;
11054;SDS011;5580;50.106;8.702;2023-02-01T01:57:38;11.40;;;7.27;;
11054;SDS011;5580;50.106;8.702;2023-02-01T02:02:36;14.00;;;7.30;;
11054;SDS011;5580;50.106;8.702;2023-02-01T02:05:03;11.00;;;7.30;;
11054;SDS011;5580;50.106;8.702;2023-02-01T02:07:31;11.30;;;7.53;;
11054;SDS011;5580;50.106;8.702;2023-02-01T02:10:06;11.90;;;7.03;;
11054;SDS011;5580;50.106;8.702;2023-02-01T02:12:35;11.90;;;7.10;;
11054;SDS011;5580;50.106;8.702;2023-02-01T02:15:04;12.13;;;7.30;;
11054;SDS011;5580;50.106;8.702;2023-02-01T02:34:28;12.77;;;7.90;;
11054;SDS011;5580;50.106;8.702;2023-02-01T02:42:14;15.17;;;8.30;;
11054;SDS011;5580;50.106;8.702;2023-02-01T02:45:08;14.47;;;8.00;;
11054;SDS011;5580;50.106;8.702;2023-02-01T02:50:27;15.30;;;8.43;;
11054;SDS011;5580;50.106;8.702;2023-02-01T02:53:19;13.50;;;8.00;;
11054;SDS011;5580;50.106;8.702;2023-02-01T02:56:24;12.37;;;7.50;;
11054;SDS011;5580;50.106;8.702;2023-02-01T02:59:11;12.17;;;7.50;;
11054;SDS011;5580;50.106;8.702;2023-02-01T03:01:58;15.10;;;7.80;;
11054;SDS011;5580;50.106;8.702;2023-02-01T03:04:42;12.50;;;8.20;;
11054;SDS011;5580;50.106;8.702;2023-02-01T03:07:14;13.00;;;7.80;;
11054;SDS011;5580;50.106;8.702;2023-02-01T03:10:03;13.73;;;7.73;;
11054;SDS011;5580;50.106;8.702;2023-02-01T03:12:33;12.13;;;7.43;;
11054;SDS011;5580;50.106;8.702;2023-02-01T03:15:28;13.33;;;7.60;;
11054;SDS011;5580;50.106;8.702;2023-02-01T03:18:18;13.17;;;7.87;;
11054;SDS011;5580;50.106;8.702;2023-02-01T03:20:49;13.03;;;7.80;;
11054;SDS011;5580;50.106;8.702;2023-02-01T03:23:19;14.57;;;7.70;;
11054;SDS011;5580;50.106;8.702;2023-02-01T03:25:48;11.57;;;7.37;;
11054;SDS011;5580;50.106;8.702;2023-02-01T03:28:16;15.07;;;7.87;;
11054;SDS011;5580;50.106;8.702;2023-02-01T03:30:46;12.70;;;7.03;;
11054;SDS011;5580;50.106;8.702;2023-02-01T03:33:15;14.33;;;7.80;;
11054;SDS011;5580;50.106;8.702;2023-02-01T03:38:23;12.90;;;7.07;;
11054;SDS011;5580;50.106;8.702;2023-02-01T03:41:33;12.03;;;7.17;;
11054;SDS011;5580;50.106;8.702;2023-02-01T03:46:58;10.87;;;6.27;;
11054;SDS011;5580;50.106;8.702;2023-02-01T03:49:38;10.67;;;6.70;;
11054;SDS011;5580;50.106;8.702;2023-02-01T03:53:09;12.97;;;6.63;;
11054;SDS011;5580;50.106;8.702;2023-02-01T03:55:10;10.53;;;6.00;;
11054;SDS011;5580;50.106;8.702;2023-02-01T03:57:43;9.70;;;5.90;;
11054;SDS011;5580;50.106;8.702;2023-02-01T04:00:18;12.43;;;6.20;;
11054;SDS011;5580;50.106;8.702;2023-02-01T04:02:46;8.97;;;5.90;;
11054;SDS011;5580;50.106;8.702;2023-02-01T04:05:12;11.70;;;6.40;;
11054;SDS011;5580;50.106;8.702;2023-02-01T04:07:38;9.17;;;5.97;;
11054;SDS011;5580;50.106;8.702;2023-02-01T04:10:04;10.97;;;6.17;;
11054;SDS011;5580;50.106;8.702;2023-02-01T04:12:30;11.40;;;6.30;;
11054;SDS011;5580;50.106;8.702;2023-02-01T04:14:55;9.10;;;5.80;;
11054;SDS011;5580;50.106;8.702;2023-02-01T04:17:21;11.70;;;7.00;;
11054;SDS011;5580;50.106;8.702;2023-02-01T04:19:46;12.07;;;6.80;;
11054;SDS011;5580;50.106;8.702;2023-02-01T04:22:12;11.37;;;6.70;;
11054;SDS011;5580;50.106;8.702;2023-02-01T04:24:38;13.97;;;7.07;;
11054;SDS011;5580;50.106;8.702;2023-02-01T04:27:03;12.10;;;7.10;;
11054;SDS011;5580;50.106;8.702;2023-02-01T04:29:29;11.93;;;6.97;;
11054;SDS011;5580;50.106;8.702;2023-02-01T04:31:55;11.50;;;6.97;;
11054;SDS011;5580;50.106;8.702;2023-02-01T04:34:20;12.93;;;7.17;;
11054;SDS011;5580;50.106;8.702;2023-02-01T04:36:47;12.27;;;7.03;;
11054;SDS011;5580;50.106;8.702;2023-02-01T04:39:13;14.57;;;7.23;;
11054;SDS011;5580;50.106;8.702;2023-02-01T04:41:39;13.40;;;7.20;;
11054;SDS011;5580;50.106;8.702;2023-02-01T04:44:04;12.93;;;7.23;;
11054;SDS011;5580;50.106;8.702;2023-02-01T04:46:30;12.03;;;7.00;;
11054;SDS011;5580;50.106;8.702;2023-02-01T04:48:56;11.57;;;6.97;;
11054;SDS011;5580;50.106;8.702;2023-02-01T04:51:21;11.33;;;6.80;;
11054;SDS011;5580;50.106;8.702;2023-02-01T04:53:47;12.00;;;7.17;;
11054;SDS011;5580;50.106;8.702;2023-02-01T04:56:12;13.07;;;6.73;;
11054;SDS011;5580;50.106;8.702;2023-02-01T04:58:38;13.50;;;7.20;;
11054;SDS011;5580;50.106;8.702;2023-02-01T05:01:04;13.00;;;7.27;;
11054;SDS011;5580;50.106;8.702;2023-02-01T05:03:31;14.00;;;6.80;;
11054;SDS011;5580;50.106;8.702;2023-02-01T05:05:57;13.77;;;6.47;;
11054;SDS011;5580;50.106;8.702;2023-02-01T05:08:24;12.40;;;6.63;;
11054;SDS011;5580;50.106;8.702;2023-02-01T05:10:51;16.60;;;6.90;;
11054;SDS011;5580;50.106;8.702;2023-02-01T05:13:17;12.10;;;6.47;;
11054;SDS011;5580;50.106;8.702;2023-02-01T05:16:01;14.53;;;7.10;;
11054;SDS011;5580;50.106;8.702;2023-02-01T05:18:28;11.63;;;6.43;;
11054;SDS011;5580;50.106;8.702;2023-02-01T05:20:53;13.23;;;6.83;;
11054;SDS011;5580;50.106;8.702;2023-02-01T05:23:19;13.90;;;6.80;;
11054;SDS011;5580;50.106;8.702;2023-02-01T05:25:44;12.20;;;6.60;;
11054;SDS011;5580;50.106;8.702;2023-02-01T05:28:10;12.83;;;7.03;;
11054;SDS011;5580;50.106;8.702;2023-02-01T05:30:36;16.97;;;10.03;;
11054;SDS011;5580;50.106;8.702;2023-02-01T05:33:02;17.87;;;9.60;;
11054;SDS011;5580;50.106;8.702;2023-02-01T05:35:27;13.40;;;7.10;;
11054;SDS011;5580;50.106;8.702;2023-02-01T05:37:53;14.73;;;7.10;;
11054;SDS011;5580;50.106;8.702;2023-02-01T05:40:19;13.57;;;6.60;;
11054;SDS011;5580;50.106;8.702;2023-02-01T05:42:44;12.50;;;6.13;;
11054;SDS011;5580;50.106;8.702;2023-02-01T05:45:10;13.03;;;6.17;;
11054;SDS011;5580;50.106;8.702;2023-02-01T05:47:36;14.13;;;5.90;;
11054;SDS011;5580;50.106;8.702;2023-02-01T05:50:02;12.77;;;5.97;;
11054;SDS011;5580;50.106;8.702;2023-02-01T05:52:29;11.13;;;5.37;;
11054;SDS011;5580;50.106;8.702;2023-02-01T05:54:55;11.90;;;5.70;;
11054;SDS011;5580;50.106;8.702;2023-02-01T05:57:21;11.03;;;5.77;;
11054;SDS011;5580;50.106;8.702;2023-02-01T05:59:46;11.73;;;5.63;;
11054;SDS011;5580;50.106;8.702;2023-02-01T06:02:13;14.13;;;5.83;;
11054;SDS011;5580;50.106;8.702;2023-02-01T06:04:40;11.20;;;5.40;;
11054;SDS011;5580;50.106;8.702;2023-02-01T06:07:06;15.07;;;6.23;;
11054;SDS011;5580;50.106;8.702;2023-02-01T06:09:33;15.03;;;5.30;;
11054;SDS011;5580;50.106;8.702;2023-02-01T06:11:59;12.73;;;5.90;;
11054;SDS011;5580;50.106;8.702;2023-02-01T06:14:26;12.73;;;5.33;;
11054;SDS011;5580;50.106;8.702;2023-02-01T06:16:52;14.40;;;5.57;;
11054;SDS011;5580;50.106;8.702;2023-02-01T06:19:18;10.93;;;4.90;;
11054;SDS011;5580;50.106;8.702;2023-02-01T06:21:44;12.67;;;5.50;;
11054;SDS011;5580;50.106;8.702;2023-02-01T06:24:09;9.70;;;5.33;;
11054;SDS011;5580;50.106;8.702;2023-02-01T06:26:35;13.03;;;5.73;;
11054;SDS011;5580;50.106;8.702;2023-02-01T06:29:01;13.13;;;5.37;;
11054;SDS011;5580;50.106;8.702;2023-02-01T06:31:26;12.73;;;5.37;;
11054;SDS011;5580;50.106;8.702;2023-02-01T06:33:52;12.93;;;5.60;;
11054;SDS011;5580;50.106;8.702;2023-02-01T06:36:18;13.30;;;5.57;;
11054;SDS011;5580;50.106;8.702;2023-02-01T06:38:46;10.53;;;5.07;;
11054;SDS011;5580;50.106;8.702;2023-02-01T06:41:12;12.70;;;5.40;;
11054;SDS011;5580;50.106;8.702;2023-02-01T06:43:38;12.33;;;4.93;;
11054;SDS011;5580;50.106;8.702;2023-02-01T06:46:04;13.20;;;5.37;;
11054;SDS011;5580;50.106;8.702;2023-02-01T06:48:36;13.60;;;5.30;;
11054;SDS011;5580;50.106;8.702;2023-02-01T06:51:01;13.17;;;5.33;;
11054;SDS011;5580;50.106;8.702;2023-02-01T06:53:27;12.03;;;5.23;;
11054;SDS011;5580;50.106;8.702;2023-02-01T06:55:59;13.37;;;5.73;;
11054;SDS011;5580;50.106;8.702;2023-02-01T06:58:30;13.53;;;5.37;;
11054;SDS011;5580;50.106;8.702;2023-02-01T07:00:57;10.80;;;5.40;;
11054;SDS011;5580;50.106;8.702;2023-02-01T07:03:28;11.60;;;5.67;;
11054;SDS011;5580;50.106;8.702;2023-02-01T07:05:55;13.33;;;5.67;;
11054;SDS011;5580;50.106;8.702;2023-02-01T07:08:23;16.27;;;5.50;;
11054;SDS011;5580;50.106;8.702;2023-02-01T07:10:49;14.73;;;5.33;;
11054;SDS011;5580;50.106;8.702;2023-02-01T07:13:15;14.97;;;5.50;;
11054;SDS011;5580;50.106;8.702;2023-02-01T07:15:40;11.13;;;5.20;;
11054;SDS011;5580;50.106;8.702;2023-02-01T07:18:06;14.27;;;5.17;;
11054;SDS011;5580;50.106;8.702;2023-02-01T07:20:31;13.87;;;5.50;;
11054;SDS011;5580;50.106;8.702;2023-02-01T07:22:57;13.57;;;5.10;;
11054;SDS011;5580;50.106;8.702;2023-02-01T07:25:23;13.80;;;5.57;;
11054;SDS011;5580;50.106;8.702;2023-02-01T07:27:49;11.53;;;5.10;;
11054;SDS011;5580;50.106;8.702;2023-02-01T07:30:14;13.90;;;5.50;;
11054;SDS011;5580;50.106;8.702;2023-02-01T07:32:40;13.10;;;5.10;;
11054;SDS011;5580;50.106;8.702;2023-02-01T07:35:05;11.87;;;4.80;;
11054;SDS011;5580;50.106;8.702;2023-02-01T07:37:31;12.30;;;4.97;;
11054;SDS011;5580;50.106;8.702;2023-02-01T07:39:57;12.50;;;5.33;;
11054;SDS011;5580;50.106;8.702;2023-02-01T07:42:22;12.60;;;5.40;;
11054;SDS011;5580;50.106;8.702;2023-02-01T07:44:48;13.23;;;5.23;;
11054;SDS011;5580;50.106;8.702;2023-02-01T07:47:13;14.00;;;4.83;;
11054;SDS011;5580;50.106;8.702;2023-02-01T07:49:39;14.73;;;5.27;;
11054;SDS011;5580;50.106;8.702;2023-02-01T07:52:04;13.67;;;5.50;;
11054;SDS011;5580;50.106;8.702;2023-02-01T07:54:30;18.77;;;5.73;;
11054;SDS011;5580;50.106;8.702;2023-02-01T07:56:56;14.20;;;5.10;;
11054;SDS011;5580;50.106;8.702;2023-02-01T07:59:21;14.87;;;5.30;;
11054;SDS011;5580;50.106;8.702;2023-02-01T08:01:47;14.03;;;5.00;;
11054;SDS011;5580;50.106;8.702;2023-02-01T08:04:13;15.43;;;4.90;;
11054;SDS011;5580;50.106;8.702;2023-02-01T08:06:38;18.80;;;5.43;;
11054;SDS011;5580;50.106;8.702;2023-02-01T08:09:05;15.63;;;5.33;;
11054;SDS011;5580;50.106;8.702;2023-02-01T08:11:32;14.07;;;5.17;;
11054;SDS011;5580;50.106;8.702;2023-02-01T08:13:59;16.67;;;5.20;;
11054;SDS011;5580;50.106;8.702;2023-02-01T08:16:25;14.73;;;4.77;;
11054;SDS011;5580;50.106;8.702;2023-02-01T08:18:51;17.20;;;5.73;;
11054;SDS011;5580;50.106;8.702;2023-02-01T08:21:18;13.73;;;4.90;;
11054;SDS011;5580;50.106;8.702;2023-02-01T08:23:47;12.57;;;5.23;;
11054;SDS011;5580;50.106;8.702;2023-02-01T08:28:50;18.30;;;5.27;;
11054;SDS011;5580;50.106;8.702;2023-02-01T08:31:21;14.17;;;5.07;;
11054;SDS011;5580;50.106;8.702;2023-02-01T08:33:49;16.43;;;5.60;;
11054;SDS011;5580;50.106;8.702;2023-02-01T08:36:17;12.77;;;5.37;;
11054;SDS011;5580;50.106;8.702;2023-02-01T08:38:43;14.37;;;5.10;;
11054;SDS011;5580;50.106;8.702;2023-02-01T08:41:12;19.23;;;5.53;;
11054;SDS011;5580;50.106;8.702;2023-02-01T08:43:40;13.60;;;5.20;;
11054;SDS011;5580;50.106;8.702;2023-02-01T08:46:07;15.23;;;5.37;;
11054;SDS011;5580;50.106;8.702;2023-02-01T08:48:33;17.67;;;5.07;;
11054;SDS011;5580;50.106;8.702;2023-02-01T08:51:03;15.67;;;5.60;;
11054;SDS011;5580;50.106;8.702;2023-02-01T08:53:30;16.13;;;5.60;;
11054;SDS011;5580;50.106;8.702;2023-02-01T08:55:56;14.27;;;4.87;;
11054;SDS011;5580;50.106;8.702;2023-02-01T08:58:21;17.57;;;5.43;;
11054;SDS011;5580;50.106;8.702;2023-02-01T09:00:47;12.20;;;4.90;;
11054;SDS011;5580;50.106;8.702;2023-02-01T09:03:14;14.30;;;5.30;;
11054;SDS011;5580;50.106;8.702;2023-02-01T09:05:41;18.23;;;5.20;;
11054;SDS011;5580;50.106;8.702;2023-02-01T09:08:06;13.80;;;4.93;;
11054;SDS011;5580;50.106;8.702;2023-02-01T09:10:32;17.63;;;5.13;;
11054;SDS011;5580;50.106;8.702;2023-02-01T09:12:59;18.13;;;6.07;;
11054;SDS011;5580;50.106;8.702;2023-02-01T09:15:24;11.00;;;4.43;;
11054;SDS011;5580;50.106;8.702;2023-02-01T09:17:50;15.23;;;5.03;;
11054;SDS011;5580;50.106;8.702;2023-02-01T09:20:15;19.13;;;5.20;;
11054;SDS011;5580;50.106;8.702;2023-02-01T09:22:42;13.17;;;5.10;;
11054;SDS011;5580;50.106;8.702;2023-02-01T09:25:08;14.57;;;4.83;;
11054;SDS011;5580;50.106;8.702;2023-02-01T09:27:34;15.97;;;5.67;;
11054;SDS011;5580;50.106;8.702;2023-02-01T09:30:00;11.93;;;4.90;;
11054;SDS011;5580;50.106;8.702;2023-02-01T09:32:25;17.10;;;4.93;;
11054;SDS011;5580;50.106;8.702;2023-02-01T09:34:51;12.07;;;4.70;;
11054;SDS011;5580;50.106;8.702;2023-02-01T09:37:17;17.33;;;5.30;;
11054;SDS011;5580;50.106;8.702;2023-02-01T09:39:43;14.30;;;4.67;;
11054;SDS011;5580;50.106;8.702;2023-02-01T09:45:20;14.10;;;4.70;;
11054;SDS011;5580;50.106;8.702;2023-02-01T09:48:03;11.37;;;4.57;;
11054;SDS011;5580;50.106;8.702;2023-02-01T09:50:57;13.27;;;4.90;;
11054;SDS011;5580;50.106;8.702;2023-02-01T09:56:46;14.53;;;4.70;;
11054;SDS011;5580;50.106;8.702;2023-02-01T10:01:59;11.40;;;4.70;;
11054;SDS011;5580;50.106;8.702;2023-02-01T10:04:26;18.07;;;5.23;;
11054;SDS011;5580;50.106;8.702;2023-02-01T10:09:49;15.17;;;4.70;;
11054;SDS011;5580;50.106;8.702;2023-02-01T10:12:32;13.43;;;4.60;;
11054;SDS011;5580;50.106;8.702;2023-02-01T10:18:04;16.50;;;5.10;;
11054;SDS011;5580;50.106;8.702;2023-02-01T10:21:03;15.83;;;5.03;;
11054;SDS011;5580;50.106;8.702;2023-02-01T10:23:43;11.60;;;4.60;;
11054;SDS011;5580;50.106;8.702;2023-02-01T10:26:32;14.20;;;4.87;;
11054;SDS011;5580;50.106;8.702;2023-02-01T10:29:02;9.73;;;4.47;;
11054;SDS011;5580;50.106;8.702;2023-02-01T10:31:30;13.97;;;4.40;;
11054;SDS011;5580;50.106;8.702;2023-02-01T10:34:01;15.13;;;4.90;;
11054;SDS011;5580;50.106;8.702;2023-02-01T10:39:59;13.77;;;4.50;;
11054;SDS011;5580;50.106;8.702;2023-02-01T10:42:44;12.97;;;4.53;;
11054;SDS011;5580;50.106;8.702;2023-02-01T10:45:15;13.70;;;4.47;;
11054;SDS011;5580;50.106;8.702;2023-02-01T10:47:43;15.20;;;5.07;;
11054;SDS011;5580;50.106;8.702;2023-02-01T10:50:13;13.23;;;4.60;;
11054;SDS011;5580;50.106;8.702;2023-02-01T10:52:48;16.87;;;5.20;;
11054;SDS011;5580;50.106;8.702;2023-02-01T10:55:25;13.30;;;4.77;;
11054;SDS011;5580;50.106;8.702;2023-02-01T10:57:55;12.03;;;4.77;;
11054;SDS011;5580;50.106;8.702;2023-02-01T11:00:26;15.97;;;4.80;;
11054;SDS011;5580;50.106;8.702;2023-02-01T11:02:53;11.17;;;4.70;;
11054;SDS011;5580;50.106;8.702;2023-02-01T11:05:19;14.10;;;4.40;;
11054;SDS011;5580;50.106;8.702;2023-02-01T11:07:51;13.40;;;4.83;;
11054;SDS011;5580;50.106;8.702;2023-02-01T11:13:02;15.47;;;4.97;;
11054;SDS011;5580;50.106;8.702;2023-02-01T11:15:28;20.27;;;5.30;;
11054;SDS011;5580;50.106;8.702;2023-02-01T11:17:54;13.13;;;5.10;;
11054;SDS011;5580;50.106;8.702;2023-02-01T11:20:39;16.00;;;5.53;;
11054;SDS011;5580;50.106;8.702;2023-02-01T11:23:13;16.43;;;4.57;;
11054;SDS011;5580;50.106;8.702;2023-02-01T11:25:47;13.00;;;4.33;;
11054;SDS011;5580;50.106;8.702;2023-02-01T11:28:14;12.40;;;4.50;;
11054;SDS011;5580;50.106;8.702;2023-02-01T11:30:42;15.07;;;4.60;;
11054;SDS011;5580;50.106;8.702;2023-02-01T11:33:14;15.57;;;4.70;;
11054;SDS011;5580;50.106;8.702;2023-02-01T11:35:43;15.13;;;4.73;;
11054;SDS011;5580;50.106;8.702;2023-02-01T11:38:12;14.73;;;4.70;;
11054;SDS011;5580;50.106;8.702;2023-02-01T11:40:47;13.07;;;4.50;;
11054;SDS011;5580;50.106;8.702;2023-02-01T11:45:41;15.83;;;4.70;;
11054;SDS011;5580;50.106;8.702;2023-02-01T11:48:32;14.83;;;4.70;;
11054;SDS011;5580;50.106;8.702;2023-02-01T11:53:48;13.97;;;4.10;;
11054;SDS011;5580;50.106;8.702;2023-02-01T11:59:17;15.13;;;4.77;;
11054;SDS011;5580;50.106;8.702;2023-02-01T12:07:16;14.83;;;4.90;;
11054;SDS011;5580;50.106;8.702;2023-02-01T12:12:53;16.63;;;4.50;;
11054;SDS011;5580;50.106;8.702;2023-02-01T12:23:37;13.40;;;4.27;;
11054;SDS011;5580;50.106;8.702;2023-02-01T12:26:47;16.13;;;4.83;;
11054;SDS011;5580;50.106;8.702;2023-02-01T12:29:33;17.30;;;5.03;;
11054;SDS011;5580;50.106;8.702;2023-02-01T12:32:25;18.93;;;4.77;;
11054;SDS011;5580;50.106;8.702;2023-02-01T12:46:15;16.50;;;5.47;;
11054;SDS011;5580;50.106;8.702;2023-02-01T12:51:40;14.77;;;4.77;;
11054;SDS011;5580;50.106;8.702;2023-02-01T12:54:53;17.03;;;4.77;;
11054;SDS011;5580;50.106;8.702;2023-02-01T12:57:04;14.53;;;4.93;;
11054;SDS011;5580;50.106;8.702;2023-02-01T12:59:45;14.80;;;4.67;;
11054;SDS011;5580;50.106;8.702;2023-02-01T13:05:17;16.20;;;4.70;;
11054;SDS011;5580;50.106;8.702;2023-02-01T13:10:45;17.53;;;4.87;;
11054;SDS011;5580;50.106;8.702;2023-02-01T13:13:19;14.70;;;4.73;;
11054;SDS011;5580;50.106;8.702;2023-02-01T13:18:35;15.73;;;4.93;;
11054;SDS011;5580;50.106;8.702;2023-02-01T13:23:46;17.90;;;5.03;;
11054;SDS011;5580;50.106;8.702;2023-02-01T13:26:13;11.40;;;4.37;;
11054;SDS011;5580;50.106;8.702;2023-02-01T13:29:13;13.53;;;4.77;;
11054;SDS011;5580;50.106;8.702;2023-02-01T13:40:09;13.30;;;4.20;;
11054;SDS011;5580;50.106;8.702;2023-02-01T13:43:02;17.53;;;4.80;;
11054;SDS011;5580;50.106;8.702;2023-02-01T13:45:34;13.90;;;4.47;;
11054;SDS011;5580;50.106;8.702;2023-02-01T13:48:06;14.60;;;4.40;;
11054;SDS011;5580;50.106;8.702;2023-02-01T13:50:40;16.60;;;4.63;;
11054;SDS011;5580;50.106;8.702;2023-02-01T13:55:44;18.47;;;4.63;;
11054;SDS011;5580;50.106;8.702;2023-02-01T14:00:43;15.10;;;4.10;;
11054;SDS011;5580;50.106;8.702;2023-02-01T14:03:13;15.50;;;4.30;;
11054;SDS011;5580;50.106;8.702;2023-02-01T14:08:11;14.80;;;4.00;;
11054;SDS011;5580;50.106;8.702;2023-02-01T14:13:34;17.63;;;4.43;;
11054;SDS011;5580;50.106;8.702;2023-02-01T14:21:18;11.43;;;3.77;;
11054;SDS011;5580;50.106;8.702;2023-02-01T14:23:58;12.70;;;4.23;;
11054;SDS011;5580;50.106;8.702;2023-02-01T14:26:45;13.27;;;3.87;;
11054;SDS011;5580;50.106;8.702;2023-02-01T14:29:18;14.53;;;4.70;;
11054;SDS011;5580;50.106;8.702;2023-02-01T14:37:21;12.47;;;4.07;;
11054;SDS011;5580;50.106;8.702;2023-02-01T14:42:52;16.97;;;4.73;;
11054;SDS011;5580;50.106;8.702;2023-02-01T14:47:45;8.50;;;3.90;;
11054;SDS011;5580;50.106;8.702;2023-02-01T14:50:40;15.77;;;4.30;;
11054;SDS011;5580;50.106;8.702;2023-02-01T14:58:10;13.33;;;3.90;;
11054;SDS011;5580;50.106;8.702;2023-02-01T15:00:46;11.87;;;3.93;;
11054;SDS011;5580;50.106;8.702;2023-02-01T15:05:56;12.67;;;4.07;;
11054;SDS011;5580;50.106;8.702;2023-02-01T15:08:27;14.50;;;4.20;;
11054;SDS011;5580;50.106;8.702;2023-02-01T15:10:55;11.57;;;3.90;;
11054;SDS011;5580;50.106;8.702;2023-02-01T15:13:24;12.53;;;4.20;;
11054;SDS011;5580;50.106;8.702;2023-02-01T15:16:11;13.43;;;4.10;;
11054;SDS011;5580;50.106;8.702;2023-02-01T15:18:43;16.60;;;4.27;;
11054;SDS011;5580;50.106;8.702;2023-02-01T15:21:17;13.57;;;4.20;;
11054;SDS011;5580;50.106;8.702;2023-02-01T15:23:45;12.17;;;4.20;;
11054;SDS011;5580;50.106;8.702;2023-02-01T15:26:30;14.17;;;4.13;;
11054;SDS011;5580;50.106;8.702;2023-02-01T15:28:59;11.77;;;4.03;;
11054;SDS011;5580;50.106;8.702;2023-02-01T15:31:37;14.97;;;4.10;;
11054;SDS011;5580;50.106;8.702;2023-02-01T15:34:10;9.17;;;3.93;;
11054;SDS011;5580;50.106;8.702;2023-02-01T15:36:36;12.73;;;4.10;;
11054;SDS011;5580;50.106;8.702;2023-02-01T15:39:12;12.80;;;4.10;;
11054;SDS011;5580;50.106;8.702;2023-02-01T15:41:52;12.77;;;3.93;;
11054;SDS011;5580;50.106;8.702;2023-02-01T15:44:26;11.60;;;3.90;;
11054;SDS011;5580;50.106;8.702;2023-02-01T15:46:54;10.33;;;3.73;;
11054;SDS011;5580;50.106;8.702;2023-02-01T15:49:27;9.67;;;3.70;;
11054;SDS011;5580;50.106;8.702;2023-02-01T15:51:55;12.00;;;4.13;;
11054;SDS011;5580;50.106;8.702;2023-02-01T15:54:32;14.13;;;4.20;;
11054;SDS011;5580;50.106;8.702;2023-02-01T15:57:07;14.30;;;4.50;;
11054;SDS011;5580;50.106;8.702;2023-02-01T15:59:39;15.87;;;3.80;;
11054;SDS011;5580;50.106;8.702;2023-02-01T16:04:54;14.33;;;5.07;;
11054;SDS011;5580;50.106;8.702;2023-02-01T16:07:33;11.37;;;3.80;;
11054;SDS011;5580;50.106;8.702;2023-02-01T16:10:00;9.77;;;3.60;;
11054;SDS011;5580;50.106;8.702;2023-02-01T16:15:04;12.77;;;4.10;;
11054;SDS011;5580;50.106;8.702;2023-02-01T16:17:30;11.20;;;3.90;;
11054;SDS011;5580;50.106;8.702;2023-02-01T16:19:56;16.50;;;4.47;;
11054;SDS011;5580;50.106;8.702;2023-02-01T16:22:23;12.73;;;3.93;;
11054;SDS011;5580;50.106;8.702;2023-02-01T16:24:49;13.57;;;4.00;;
11054;SDS011;5580;50.106;8.702;2023-02-01T16:27:15;12.73;;;3.77;;
11054;SDS011;5580;50.106;8.702;2023-02-01T16:29:40;9.40;;;3.63;;
11054;SDS011;5580;50.106;8.702;2023-02-01T16:32:06;10.10;;;3.63;;
11054;SDS011;5580;50.106;8.702;2023-02-01T16:34:35;11.00;;;3.80;;
11054;SDS011;5580;50.106;8.702;2023-02-01T16:37:02;12.27;;;4.10;;
11054;SDS011;5580;50.106;8.702;2023-02-01T16:39:28;13.07;;;4.10;;
11054;SDS011;5580;50.106;8.702;2023-02-01T16:41:54;12.17;;;3.77;;
11054;SDS011;5580;50.106;8.702;2023-02-01T16:44:20;10.40;;;3.90;;
11054;SDS011;5580;50.106;8.702;2023-02-01T16:46:46;8.97;;;3.70;;
11054;SDS011;5580;50.106;8.702;2023-02-01T16:49:20;11.17;;;4.00;;
11054;SDS011;5580;50.106;8.702;2023-02-01T16:51:48;15.60;;;4.50;;
11054;SDS011;5580;50.106;8.702;2023-02-01T16:54:17;11.20;;;4.00;;
11054;SDS011;5580;50.106;8.702;2023-02-01T16:56:43;15.17;;;4.10;;
11054;SDS011;5580;50.106;8.702;2023-02-01T16:59:10;12.13;;;3.67;;
11054;SDS011;5580;50.106;8.702;2023-02-01T17:01:35;13.83;;;4.40;;
11054;SDS011;5580;50.106;8.702;2023-02-01T17:04:06;13.27;;;4.30;;
11054;SDS011;5580;50.106;8.702;2023-02-01T17:06:32;10.00;;;4.07;;
11054;SDS011;5580;50.106;8.702;2023-02-01T17:09:02;10.40;;;3.90;;
11054;SDS011;5580;50.106;8.702;2023-02-01T17:11:28;11.10;;;3.87;;
11054;SDS011;5580;50.106;8.702;2023-02-01T17:13:56;13.87;;;4.23;;
11054;SDS011;5580;50.106;8.702;2023-02-01T17:16:28;11.83;;;3.77;;
11054;SDS011;5580;50.106;8.702;2023-02-01T17:19:03;13.40;;;4.17;;
11054;SDS011;5580;50.106;8.702;2023-02-01T17:21:34;13.17;;;4.00;;
11054;SDS011;5580;50.106;8.702;2023-02-01T17:24:07;12.77;;;3.90;;
11054;SDS011;5580;50.106;8.702;2023-02-01T17:26:34;12.03;;;4.40;;
11054;SDS011;5580;50.106;8.702;2023-02-01T17:28:59;12.90;;;3.83;;
11054;SDS011;5580;50.106;8.702;2023-02-01T17:31:25;14.67;;;4.10;;
11054;SDS011;5580;50.106;8.702;2023-02-01T17:33:51;13.87;;;4.30;;
11054;SDS011;5580;50.106;8.702;2023-02-01T17:36:16;10.00;;;3.83;;
11054;SDS011;5580;50.106;8.702;2023-02-01T17:38:42;11.10;;;4.03;;
11054;SDS011;5580;50.106;8.702;2023-02-01T17:41:09;13.07;;;4.17;;